sensor_id;sensor_type;location;lat;lon;timestamp;P1;durP1;ratioP1;P2;durP2;ratioP2
61640;SDS011;62201;49.966;8.342;2023-08-06T00:01:12;4.80;;;2.65;;
61640;SDS011;62201;49.966;8.342;2023-08-06T00:03:37;4.07;;;2.40;;
61640;SDS011;62201;49.966;8.342;2023-08-06T00:06:04;5.03;;;2.53;;
61640;SDS011;62201;49.966;8.342;2023-08-06T00:08:30;3.58;;;2.30;;
61640;SDS011;62201;49.966;8.342;2023-08-06T00:10:55;4.65;;;2.80;;
61640;SDS011;62201;49.966;8.342;2023-08-06T00:13:20;2.92;;;2.20;;
61640;SDS011;62201;49.966;8.342;2023-08-06T00:15:46;4.00;;;2.40;;
61640;SDS011;62201;49.966;8.342;2023-08-06T00:18:11;4.15;;;2.75;;
61640;SDS011;62201;49.966;8.342;2023-08-06T00:20:40;4.70;;;2.72;;
61640;SDS011;62201;49.966;8.342;2023-08-06T00:23:06;4.13;;;2.70;;
61640;SDS011;62201;49.966;8.342;2023-08-06T00:25:32;3.92;;;2.55;;
61640;SDS011;62201;49.966;8.342;2023-08-06T00:27:57;3.10;;;2.40;;
61640;SDS011;62201;49.966;8.342;2023-08-06T00:30:22;5.75;;;2.50;;
61640;SDS011;62201;49.966;8.342;2023-08-06T00:32:48;4.38;;;2.30;;
61640;SDS011;62201;49.966;8.342;2023-08-06T00:35:14;2.67;;;2.17;;
61640;SDS011;62201;49.966;8.342;2023-08-06T00:37:39;5.15;;;2.53;;
61640;SDS011;62201;49.966;8.342;2023-08-06T00:40:05;2.97;;;2.22;;
61640;SDS011;62201;49.966;8.342;2023-08-06T00:42:32;4.38;;;2.40;;
61640;SDS011;62201;49.966;8.342;2023-08-06T00:44:57;3.38;;;2.20;;
61640;SDS011;62201;49.966;8.342;2023-08-06T00:47:22;4.05;;;2.40;;
61640;SDS011;62201;49.966;8.342;2023-08-06T00:49:48;5.35;;;2.40;;
61640;SDS011;62201;49.966;8.342;2023-08-06T00:52:14;4.65;;;2.95;;
61640;SDS011;62201;49.966;8.342;2023-08-06T00:54:39;5.40;;;2.80;;
61640;SDS011;62201;49.966;8.342;2023-08-06T00:57:05;3.72;;;2.47;;
61640;SDS011;62201;49.966;8.342;2023-08-06T00:59:33;4.75;;;2.10;;
61640;SDS011;62201;49.966;8.342;2023-08-06T01:01:59;3.50;;;2.55;;
61640;SDS011;62201;49.966;8.342;2023-08-06T01:04:24;3.95;;;2.40;;
61640;SDS011;62201;49.966;8.342;2023-08-06T01:09:41;2.55;;;2.33;;
61640;SDS011;62201;49.966;8.342;2023-08-06T01:12:40;6.22;;;2.30;;
61640;SDS011;62201;49.966;8.342;2023-08-06T01:15:17;6.20;;;2.63;;
61640;SDS011;62201;49.966;8.342;2023-08-06T01:17:49;4.32;;;2.38;;
61640;SDS011;62201;49.966;8.342;2023-08-06T01:20:15;3.33;;;2.20;;
61640;SDS011;62201;49.966;8.342;2023-08-06T01:22:40;6.53;;;2.33;;
61640;SDS011;62201;49.966;8.342;2023-08-06T01:25:06;6.53;;;2.58;;
61640;SDS011;62201;49.966;8.342;2023-08-06T01:27:33;5.97;;;2.60;;
61640;SDS011;62201;49.966;8.342;2023-08-06T01:30:27;6.97;;;2.80;;
61640;SDS011;62201;49.966;8.342;2023-08-06T01:32:58;3.60;;;2.63;;
61640;SDS011;62201;49.966;8.342;2023-08-06T01:35:25;3.15;;;2.75;;
61640;SDS011;62201;49.966;8.342;2023-08-06T01:37:52;3.10;;;2.47;;
61640;SDS011;62201;49.966;8.342;2023-08-06T01:40:18;3.10;;;2.72;;
61640;SDS011;62201;49.966;8.342;2023-08-06T01:42:43;4.72;;;2.75;;
61640;SDS011;62201;49.966;8.342;2023-08-06T01:45:09;3.60;;;2.53;;
61640;SDS011;62201;49.966;8.342;2023-08-06T01:47:35;6.88;;;3.10;;
61640;SDS011;62201;49.966;8.342;2023-08-06T01:50:01;6.03;;;3.28;;
61640;SDS011;62201;49.966;8.342;2023-08-06T01:52:27;5.88;;;3.45;;
61640;SDS011;62201;49.966;8.342;2023-08-06T01:54:52;5.97;;;2.95;;
61640;SDS011;62201;49.966;8.342;2023-08-06T01:57:18;3.67;;;2.72;;
61640;SDS011;62201;49.966;8.342;2023-08-06T01:59:43;4.85;;;2.85;;
61640;SDS011;62201;49.966;8.342;2023-08-06T02:02:09;5.80;;;3.30;;
61640;SDS011;62201;49.966;8.342;2023-08-06T02:04:34;3.35;;;2.80;;
61640;SDS011;62201;49.966;8.342;2023-08-06T02:06:59;5.93;;;3.00;;
61640;SDS011;62201;49.966;8.342;2023-08-06T02:09:25;6.95;;;3.13;;
61640;SDS011;62201;49.966;8.342;2023-08-06T02:11:50;6.32;;;3.03;;
61640;SDS011;62201;49.966;8.342;2023-08-06T02:14:15;6.85;;;3.20;;
61640;SDS011;62201;49.966;8.342;2023-08-06T02:16:41;5.47;;;3.45;;
61640;SDS011;62201;49.966;8.342;2023-08-06T02:19:06;8.15;;;3.50;;
61640;SDS011;62201;49.966;8.342;2023-08-06T02:21:31;9.05;;;3.50;;
61640;SDS011;62201;49.966;8.342;2023-08-06T02:23:57;6.38;;;3.67;;
61640;SDS011;62201;49.966;8.342;2023-08-06T02:26:22;5.50;;;3.17;;
61640;SDS011;62201;49.966;8.342;2023-08-06T02:28:48;7.53;;;3.70;;
61640;SDS011;62201;49.966;8.342;2023-08-06T02:31:13;6.22;;;3.70;;
61640;SDS011;62201;49.966;8.342;2023-08-06T02:33:38;5.25;;;3.65;;
61640;SDS011;62201;49.966;8.342;2023-08-06T02:36:04;9.27;;;4.10;;
61640;SDS011;62201;49.966;8.342;2023-08-06T02:38:30;11.45;;;3.65;;
61640;SDS011;62201;49.966;8.342;2023-08-06T02:40:56;7.30;;;3.97;;
61640;SDS011;62201;49.966;8.342;2023-08-06T02:43:21;11.43;;;3.92;;
61640;SDS011;62201;49.966;8.342;2023-08-06T02:45:47;5.57;;;3.60;;
61640;SDS011;62201;49.966;8.342;2023-08-06T02:48:12;6.10;;;3.38;;
61640;SDS011;62201;49.966;8.342;2023-08-06T02:50:41;5.43;;;3.22;;
61640;SDS011;62201;49.966;8.342;2023-08-06T02:53:07;5.72;;;3.00;;
61640;SDS011;62201;49.966;8.342;2023-08-06T02:55:32;7.07;;;3.15;;
61640;SDS011;62201;49.966;8.342;2023-08-06T02:57:59;8.18;;;3.33;;
61640;SDS011;62201;49.966;8.342;2023-08-06T03:00:25;7.75;;;3.08;;
61640;SDS011;62201;49.966;8.342;2023-08-06T03:02:50;5.05;;;3.15;;
61640;SDS011;62201;49.966;8.342;2023-08-06T03:05:15;5.22;;;2.75;;
61640;SDS011;62201;49.966;8.342;2023-08-06T03:07:41;4.57;;;2.40;;
61640;SDS011;62201;49.966;8.342;2023-08-06T03:10:06;5.43;;;2.65;;
61640;SDS011;62201;49.966;8.342;2023-08-06T03:12:32;4.65;;;2.40;;
61640;SDS011;62201;49.966;8.342;2023-08-06T03:14:57;5.75;;;2.42;;
61640;SDS011;62201;49.966;8.342;2023-08-06T03:17:22;6.07;;;2.13;;
61640;SDS011;62201;49.966;8.342;2023-08-06T03:19:48;3.80;;;2.00;;
61640;SDS011;62201;49.966;8.342;2023-08-06T03:22:13;4.90;;;2.20;;
61640;SDS011;62201;49.966;8.342;2023-08-06T03:24:38;4.50;;;2.05;;
61640;SDS011;62201;49.966;8.342;2023-08-06T03:27:04;3.20;;;1.90;;
61640;SDS011;62201;49.966;8.342;2023-08-06T03:29:30;2.80;;;1.95;;
61640;SDS011;62201;49.966;8.342;2023-08-06T03:31:55;4.55;;;2.00;;
61640;SDS011;62201;49.966;8.342;2023-08-06T03:34:20;3.72;;;2.13;;
61640;SDS011;62201;49.966;8.342;2023-08-06T03:36:46;6.50;;;2.45;;
61640;SDS011;62201;49.966;8.342;2023-08-06T03:39:11;2.50;;;1.90;;
61640;SDS011;62201;49.966;8.342;2023-08-06T03:41:37;5.70;;;1.77;;
61640;SDS011;62201;49.966;8.342;2023-08-06T03:44:02;3.80;;;1.55;;
61640;SDS011;62201;49.966;8.342;2023-08-06T03:46:29;3.58;;;1.50;;
61640;SDS011;62201;49.966;8.342;2023-08-06T03:48:54;7.68;;;1.58;;
61640;SDS011;62201;49.966;8.342;2023-08-06T03:51:20;6.20;;;1.58;;
61640;SDS011;62201;49.966;8.342;2023-08-06T03:53:45;4.38;;;1.60;;
61640;SDS011;62201;49.966;8.342;2023-08-06T03:56:10;4.03;;;1.75;;
61640;SDS011;62201;49.966;8.342;2023-08-06T03:58:36;4.85;;;1.90;;
61640;SDS011;62201;49.966;8.342;2023-08-06T04:01:02;4.88;;;1.70;;
61640;SDS011;62201;49.966;8.342;2023-08-06T04:03:28;5.60;;;1.48;;
61640;SDS011;62201;49.966;8.342;2023-08-06T04:05:53;3.40;;;1.70;;
61640;SDS011;62201;49.966;8.342;2023-08-06T04:08:19;4.88;;;2.05;;
61640;SDS011;62201;49.966;8.342;2023-08-06T04:10:45;4.30;;;1.90;;
61640;SDS011;62201;49.966;8.342;2023-08-06T04:13:14;4.38;;;1.75;;
61640;SDS011;62201;49.966;8.342;2023-08-06T04:15:39;5.72;;;1.70;;
61640;SDS011;62201;49.966;8.342;2023-08-06T04:18:04;3.42;;;1.83;;
61640;SDS011;62201;49.966;8.342;2023-08-06T04:20:29;3.97;;;1.70;;
61640;SDS011;62201;49.966;8.342;2023-08-06T04:22:55;3.33;;;1.10;;
61640;SDS011;62201;49.966;8.342;2023-08-06T04:25:20;5.00;;;1.10;;
61640;SDS011;62201;49.966;8.342;2023-08-06T04:27:46;2.38;;;0.85;;
61640;SDS011;62201;49.966;8.342;2023-08-06T04:30:12;3.20;;;1.23;;
61640;SDS011;62201;49.966;8.342;2023-08-06T04:32:38;4.35;;;1.00;;
61640;SDS011;62201;49.966;8.342;2023-08-06T04:35:04;5.53;;;1.33;;
61640;SDS011;62201;49.966;8.342;2023-08-06T04:37:30;4.53;;;1.02;;
61640;SDS011;62201;49.966;8.342;2023-08-06T04:39:55;6.28;;;1.20;;
61640;SDS011;62201;49.966;8.342;2023-08-06T04:42:20;3.92;;;0.98;;
61640;SDS011;62201;49.966;8.342;2023-08-06T04:44:46;3.22;;;1.00;;
61640;SDS011;62201;49.966;8.342;2023-08-06T04:47:11;5.22;;;1.52;;
61640;SDS011;62201;49.966;8.342;2023-08-06T04:49:36;2.10;;;0.77;;
61640;SDS011;62201;49.966;8.342;2023-08-06T04:52:02;2.40;;;1.00;;
61640;SDS011;62201;49.966;8.342;2023-08-06T04:54:27;3.15;;;1.10;;
61640;SDS011;62201;49.966;8.342;2023-08-06T04:56:53;3.10;;;1.05;;
61640;SDS011;62201;49.966;8.342;2023-08-06T04:59:18;3.53;;;1.25;;
61640;SDS011;62201;49.966;8.342;2023-08-06T05:01:44;3.78;;;1.42;;
61640;SDS011;62201;49.966;8.342;2023-08-06T05:04:09;3.05;;;1.10;;
61640;SDS011;62201;49.966;8.342;2023-08-06T05:06:34;3.83;;;1.30;;
61640;SDS011;62201;49.966;8.342;2023-08-06T05:09:00;4.45;;;1.48;;
61640;SDS011;62201;49.966;8.342;2023-08-06T05:11:25;3.63;;;1.20;;
61640;SDS011;62201;49.966;8.342;2023-08-06T05:13:51;3.05;;;1.55;;
61640;SDS011;62201;49.966;8.342;2023-08-06T05:16:16;8.18;;;1.75;;
61640;SDS011;62201;49.966;8.342;2023-08-06T05:18:41;5.50;;;1.88;;
61640;SDS011;62201;49.966;8.342;2023-08-06T05:21:07;4.75;;;1.60;;
61640;SDS011;62201;49.966;8.342;2023-08-06T05:23:32;5.65;;;1.33;;
61640;SDS011;62201;49.966;8.342;2023-08-06T05:25:57;6.93;;;1.60;;
61640;SDS011;62201;49.966;8.342;2023-08-06T05:28:23;6.60;;;1.50;;
61640;SDS011;62201;49.966;8.342;2023-08-06T05:30:48;2.28;;;0.98;;
61640;SDS011;62201;49.966;8.342;2023-08-06T05:33:14;3.40;;;0.70;;
61640;SDS011;62201;49.966;8.342;2023-08-06T05:35:40;3.17;;;0.90;;
61640;SDS011;62201;49.966;8.342;2023-08-06T05:38:07;2.22;;;0.85;;
61640;SDS011;62201;49.966;8.342;2023-08-06T05:40:35;4.60;;;1.30;;
61640;SDS011;62201;49.966;8.342;2023-08-06T05:43:00;2.20;;;0.88;;
61640;SDS011;62201;49.966;8.342;2023-08-06T05:45:26;2.85;;;0.60;;
61640;SDS011;62201;49.966;8.342;2023-08-06T05:47:51;1.88;;;0.57;;
61640;SDS011;62201;49.966;8.342;2023-08-06T05:50:18;1.67;;;0.60;;
61640;SDS011;62201;49.966;8.342;2023-08-06T05:52:44;0.98;;;0.40;;
61640;SDS011;62201;49.966;8.342;2023-08-06T05:55:09;1.58;;;0.50;;
61640;SDS011;62201;49.966;8.342;2023-08-06T05:57:35;1.75;;;0.50;;
61640;SDS011;62201;49.966;8.342;2023-08-06T06:00:00;2.17;;;0.60;;
61640;SDS011;62201;49.966;8.342;2023-08-06T06:02:26;2.75;;;0.77;;
61640;SDS011;62201;49.966;8.342;2023-08-06T06:04:51;2.03;;;0.70;;
61640;SDS011;62201;49.966;8.342;2023-08-06T06:07:17;0.85;;;0.50;;
61640;SDS011;62201;49.966;8.342;2023-08-06T06:09:42;2.42;;;0.50;;
61640;SDS011;62201;49.966;8.342;2023-08-06T06:12:07;2.72;;;0.40;;
61640;SDS011;62201;49.966;8.342;2023-08-06T06:14:33;3.85;;;0.50;;
61640;SDS011;62201;49.966;8.342;2023-08-06T06:16:59;2.80;;;0.60;;
61640;SDS011;62201;49.966;8.342;2023-08-06T06:19:25;1.48;;;0.40;;
61640;SDS011;62201;49.966;8.342;2023-08-06T06:21:50;0.80;;;0.30;;
61640;SDS011;62201;49.966;8.342;2023-08-06T06:24:16;0.40;;;0.30;;
61640;SDS011;62201;49.966;8.342;2023-08-06T06:26:41;1.40;;;0.50;;
61640;SDS011;62201;49.966;8.342;2023-08-06T06:29:06;2.35;;;0.40;;
61640;SDS011;62201;49.966;8.342;2023-08-06T06:31:32;1.15;;;0.30;;
61640;SDS011;62201;49.966;8.342;2023-08-06T06:33:57;1.35;;;0.40;;
61640;SDS011;62201;49.966;8.342;2023-08-06T06:36:23;1.02;;;0.43;;
61640;SDS011;62201;49.966;8.342;2023-08-06T06:38:49;0.95;;;0.40;;
61640;SDS011;62201;49.966;8.342;2023-08-06T06:41:14;2.67;;;0.50;;
61640;SDS011;62201;49.966;8.342;2023-08-06T06:43:39;1.48;;;0.60;;
61640;SDS011;62201;49.966;8.342;2023-08-06T06:46:05;6.28;;;0.70;;
61640;SDS011;62201;49.966;8.342;2023-08-06T06:48:31;2.35;;;1.00;;
61640;SDS011;62201;49.966;8.342;2023-08-06T06:50:57;5.40;;;0.70;;
61640;SDS011;62201;49.966;8.342;2023-08-06T06:53:23;2.28;;;0.60;;
61640;SDS011;62201;49.966;8.342;2023-08-06T06:56:10;1.52;;;0.40;;
61640;SDS011;62201;49.966;8.342;2023-08-06T06:58:36;1.35;;;0.73;;
61640;SDS011;62201;49.966;8.342;2023-08-06T07:01:02;2.30;;;0.68;;
61640;SDS011;62201;49.966;8.342;2023-08-06T07:03:27;1.83;;;0.70;;
61640;SDS011;62201;49.966;8.342;2023-08-06T07:05:56;3.13;;;0.50;;
61640;SDS011;62201;49.966;8.342;2023-08-06T07:08:22;2.80;;;0.43;;
61640;SDS011;62201;49.966;8.342;2023-08-06T07:10:48;1.23;;;0.47;;
61640;SDS011;62201;49.966;8.342;2023-08-06T07:13:13;2.30;;;0.60;;
61640;SDS011;62201;49.966;8.342;2023-08-06T07:15:38;1.63;;;0.30;;
61640;SDS011;62201;49.966;8.342;2023-08-06T07:18:04;0.98;;;0.35;;
61640;SDS011;62201;49.966;8.342;2023-08-06T07:20:29;1.13;;;0.50;;
61640;SDS011;62201;49.966;8.342;2023-08-06T07:22:56;1.52;;;0.50;;
61640;SDS011;62201;49.966;8.342;2023-08-06T07:25:23;1.00;;;0.40;;
61640;SDS011;62201;49.966;8.342;2023-08-06T07:27:48;0.43;;;0.30;;
61640;SDS011;62201;49.966;8.342;2023-08-06T07:30:14;0.80;;;0.30;;
61640;SDS011;62201;49.966;8.342;2023-08-06T07:32:39;1.58;;;0.40;;
61640;SDS011;62201;49.966;8.342;2023-08-06T07:35:05;0.77;;;0.20;;
61640;SDS011;62201;49.966;8.342;2023-08-06T07:37:33;0.60;;;0.22;;
61640;SDS011;62201;49.966;8.342;2023-08-06T07:39:58;0.80;;;0.40;;
61640;SDS011;62201;49.966;8.342;2023-08-06T07:42:23;0.30;;;0.30;;
61640;SDS011;62201;49.966;8.342;2023-08-06T07:44:51;2.47;;;0.20;;
61640;SDS011;62201;49.966;8.342;2023-08-06T07:47:17;1.50;;;0.30;;
61640;SDS011;62201;49.966;8.342;2023-08-06T07:49:43;1.20;;;0.20;;
61640;SDS011;62201;49.966;8.342;2023-08-06T07:52:08;0.30;;;0.30;;
61640;SDS011;62201;49.966;8.342;2023-08-06T07:54:34;0.43;;;0.30;;
61640;SDS011;62201;49.966;8.342;2023-08-06T07:56:59;0.57;;;0.20;;
61640;SDS011;62201;49.966;8.342;2023-08-06T07:59:24;0.80;;;0.40;;
61640;SDS011;62201;49.966;8.342;2023-08-06T08:01:50;1.63;;;0.28;;
61640;SDS011;62201;49.966;8.342;2023-08-06T08:04:15;0.65;;;0.30;;
61640;SDS011;62201;49.966;8.342;2023-08-06T08:06:41;1.02;;;0.30;;
61640;SDS011;62201;49.966;8.342;2023-08-06T08:09:06;0.50;;;0.30;;
61640;SDS011;62201;49.966;8.342;2023-08-06T08:11:32;0.95;;;0.30;;
61640;SDS011;62201;49.966;8.342;2023-08-06T08:13:57;1.73;;;0.68;;
61640;SDS011;62201;49.966;8.342;2023-08-06T08:16:22;0.40;;;0.22;;
61640;SDS011;62201;49.966;8.342;2023-08-06T08:18:48;0.93;;;0.30;;
61640;SDS011;62201;49.966;8.342;2023-08-06T08:21:13;0.43;;;0.43;;
61640;SDS011;62201;49.966;8.342;2023-08-06T08:23:39;0.77;;;0.30;;
61640;SDS011;62201;49.966;8.342;2023-08-06T08:26:04;0.63;;;0.30;;
61640;SDS011;62201;49.966;8.342;2023-08-06T08:28:30;0.77;;;0.45;;
61640;SDS011;62201;49.966;8.342;2023-08-06T08:30:55;1.23;;;0.25;;
61640;SDS011;62201;49.966;8.342;2023-08-06T08:33:21;0.43;;;0.30;;
61640;SDS011;62201;49.966;8.342;2023-08-06T08:35:46;1.27;;;0.40;;
61640;SDS011;62201;49.966;8.342;2023-08-06T08:38:12;0.80;;;0.30;;
61640;SDS011;62201;49.966;8.342;2023-08-06T08:40:39;0.43;;;0.30;;
61640;SDS011;62201;49.966;8.342;2023-08-06T08:43:10;1.13;;;0.47;;
61640;SDS011;62201;49.966;8.342;2023-08-06T08:45:38;0.70;;;0.30;;
61640;SDS011;62201;49.966;8.342;2023-08-06T08:48:04;0.93;;;0.30;;
61640;SDS011;62201;49.966;8.342;2023-08-06T08:50:30;2.58;;;0.30;;
61640;SDS011;62201;49.966;8.342;2023-08-06T08:52:56;1.52;;;0.40;;
61640;SDS011;62201;49.966;8.342;2023-08-06T08:55:22;0.90;;;0.30;;
61640;SDS011;62201;49.966;8.342;2023-08-06T08:57:48;0.28;;;0.22;;
61640;SDS011;62201;49.966;8.342;2023-08-06T09:00:13;0.47;;;0.22;;
61640;SDS011;62201;49.966;8.342;2023-08-06T09:02:39;0.60;;;0.40;;
61640;SDS011;62201;49.966;8.342;2023-08-06T09:05:06;0.77;;;0.30;;
61640;SDS011;62201;49.966;8.342;2023-08-06T09:07:38;0.30;;;0.30;;
61640;SDS011;62201;49.966;8.342;2023-08-06T09:10:08;0.60;;;0.30;;
61640;SDS011;62201;49.966;8.342;2023-08-06T09:12:36;0.38;;;0.30;;
61640;SDS011;62201;49.966;8.342;2023-08-06T09:15:01;0.50;;;0.20;;
61640;SDS011;62201;49.966;8.342;2023-08-06T09:17:28;0.10;;;0.10;;
61640;SDS011;62201;49.966;8.342;2023-08-06T09:19:54;1.02;;;0.20;;
61640;SDS011;62201;49.966;8.342;2023-08-06T09:22:19;0.60;;;0.30;;
61640;SDS011;62201;49.966;8.342;2023-08-06T09:24:45;1.75;;;0.22;;
61640;SDS011;62201;49.966;8.342;2023-08-06T09:27:14;0.90;;;0.30;;
61640;SDS011;62201;49.966;8.342;2023-08-06T09:29:44;0.43;;;0.30;;
61640;SDS011;62201;49.966;8.342;2023-08-06T09:32:10;0.90;;;0.30;;
61640;SDS011;62201;49.966;8.342;2023-08-06T09:34:39;0.63;;;0.30;;
61640;SDS011;62201;49.966;8.342;2023-08-06T09:37:07;0.50;;;0.40;;
61640;SDS011;62201;49.966;8.342;2023-08-06T09:39:34;1.27;;;0.55;;
61640;SDS011;62201;49.966;8.342;2023-08-06T09:42:00;0.60;;;0.30;;
61640;SDS011;62201;49.966;8.342;2023-08-06T09:44:27;1.02;;;0.32;;
61640;SDS011;62201;49.966;8.342;2023-08-06T09:46:54;0.47;;;0.20;;
61640;SDS011;62201;49.966;8.342;2023-08-06T09:49:21;1.63;;;0.30;;
61640;SDS011;62201;49.966;8.342;2023-08-06T09:51:50;0.40;;;0.20;;
61640;SDS011;62201;49.966;8.342;2023-08-06T09:54:16;0.30;;;0.30;;
61640;SDS011;62201;49.966;8.342;2023-08-06T09:56:43;0.20;;;0.20;;
61640;SDS011;62201;49.966;8.342;2023-08-06T09:59:09;0.20;;;0.20;;
61640;SDS011;62201;49.966;8.342;2023-08-06T10:01:36;0.30;;;0.20;;
61640;SDS011;62201;49.966;8.342;2023-08-06T10:04:05;0.57;;;0.30;;
61640;SDS011;62201;49.966;8.342;2023-08-06T10:06:37;0.30;;;0.30;;
61640;SDS011;62201;49.966;8.342;2023-08-06T10:09:05;0.30;;;0.20;;
61640;SDS011;62201;49.966;8.342;2023-08-06T10:11:31;1.77;;;0.40;;
61640;SDS011;62201;49.966;8.342;2023-08-06T10:13:58;0.35;;;0.20;;
61640;SDS011;62201;49.966;8.342;2023-08-06T10:16:28;0.15;;;0.13;;
61640;SDS011;62201;49.966;8.342;2023-08-06T10:18:54;0.45;;;0.20;;
61640;SDS011;62201;49.966;8.342;2023-08-06T10:21:23;0.28;;;0.20;;
61640;SDS011;62201;49.966;8.342;2023-08-06T10:23:53;1.73;;;0.30;;
61640;SDS011;62201;49.966;8.342;2023-08-06T10:26:19;0.20;;;0.20;;
61640;SDS011;62201;49.966;8.342;2023-08-06T10:28:45;0.10;;;0.10;;
61640;SDS011;62201;49.966;8.342;2023-08-06T10:31:10;1.42;;;0.20;;
61640;SDS011;62201;49.966;8.342;2023-08-06T10:33:40;1.08;;;0.30;;
61640;SDS011;62201;49.966;8.342;2023-08-06T10:36:12;0.68;;;0.20;;
61640;SDS011;62201;49.966;8.342;2023-08-06T10:38:45;0.50;;;0.20;;
61640;SDS011;62201;49.966;8.342;2023-08-06T10:41:15;0.25;;;0.20;;
61640;SDS011;62201;49.966;8.342;2023-08-06T10:43:47;0.40;;;0.17;;
61640;SDS011;62201;49.966;8.342;2023-08-06T10:46:28;1.77;;;0.10;;
61640;SDS011;62201;49.966;8.342;2023-08-06T10:48:53;0.40;;;0.30;;
61640;SDS011;62201;49.966;8.342;2023-08-06T10:51:19;2.95;;;0.22;;
61640;SDS011;62201;49.966;8.342;2023-08-06T10:53:45;0.38;;;0.38;;
61640;SDS011;62201;49.966;8.342;2023-08-06T10:56:12;0.28;;;0.20;;
61640;SDS011;62201;49.966;8.342;2023-08-06T10:58:39;0.77;;;0.30;;
61640;SDS011;62201;49.966;8.342;2023-08-06T11:01:04;0.40;;;0.40;;
61640;SDS011;62201;49.966;8.342;2023-08-06T11:03:31;2.50;;;0.30;;
61640;SDS011;62201;49.966;8.342;2023-08-06T11:05:57;0.20;;;0.20;;
61640;SDS011;62201;49.966;8.342;2023-08-06T11:08:24;0.10;;;0.10;;
61640;SDS011;62201;49.966;8.342;2023-08-06T11:10:53;0.40;;;0.40;;
61640;SDS011;62201;49.966;8.342;2023-08-06T11:13:19;1.17;;;0.50;;
61640;SDS011;62201;49.966;8.342;2023-08-06T11:15:45;0.22;;;0.20;;
61640;SDS011;62201;49.966;8.342;2023-08-06T11:18:11;0.55;;;0.38;;
61640;SDS011;62201;49.966;8.342;2023-08-06T11:20:37;1.58;;;0.30;;
61640;SDS011;62201;49.966;8.342;2023-08-06T11:23:03;0.30;;;0.20;;
61640;SDS011;62201;49.966;8.342;2023-08-06T11:25:29;0.43;;;0.20;;
61640;SDS011;62201;49.966;8.342;2023-08-06T11:27:54;1.05;;;0.20;;
61640;SDS011;62201;49.966;8.342;2023-08-06T11:30:20;0.10;;;0.10;;
61640;SDS011;62201;49.966;8.342;2023-08-06T11:32:46;0.30;;;0.15;;
61640;SDS011;62201;49.966;8.342;2023-08-06T11:35:12;2.55;;;0.20;;
61640;SDS011;62201;49.966;8.342;2023-08-06T11:37:39;4.07;;;0.30;;
61640;SDS011;62201;49.966;8.342;2023-08-06T11:40:08;1.33;;;0.90;;
61640;SDS011;62201;49.966;8.342;2023-08-06T11:42:36;3.50;;;0.95;;
61640;SDS011;62201;49.966;8.342;2023-08-06T11:45:02;1.58;;;0.60;;
61640;SDS011;62201;49.966;8.342;2023-08-06T11:47:29;2.25;;;1.00;;
61640;SDS011;62201;49.966;8.342;2023-08-06T11:49:54;1.55;;;1.02;;
61640;SDS011;62201;49.966;8.342;2023-08-06T11:52:20;2.38;;;0.90;;
61640;SDS011;62201;49.966;8.342;2023-08-06T11:55:06;2.55;;;1.55;;
61640;SDS011;62201;49.966;8.342;2023-08-06T11:57:35;0.43;;;0.40;;
61640;SDS011;62201;49.966;8.342;2023-08-06T12:00:11;0.30;;;0.28;;
61640;SDS011;62201;49.966;8.342;2023-08-06T12:02:41;0.63;;;0.30;;
61640;SDS011;62201;49.966;8.342;2023-08-06T12:05:14;1.70;;;0.40;;
61640;SDS011;62201;49.966;8.342;2023-08-06T12:07:42;1.20;;;0.38;;
61640;SDS011;62201;49.966;8.342;2023-08-06T12:10:09;0.82;;;0.40;;
61640;SDS011;62201;49.966;8.342;2023-08-06T12:12:34;2.53;;;0.32;;
61640;SDS011;62201;49.966;8.342;2023-08-06T12:15:00;1.55;;;0.47;;
61640;SDS011;62201;49.966;8.342;2023-08-06T12:17:26;0.70;;;0.40;;
61640;SDS011;62201;49.966;8.342;2023-08-06T12:19:51;3.13;;;0.40;;
61640;SDS011;62201;49.966;8.342;2023-08-06T12:22:17;0.88;;;0.50;;
61640;SDS011;62201;49.966;8.342;2023-08-06T12:24:43;1.45;;;0.40;;
61640;SDS011;62201;49.966;8.342;2023-08-06T12:27:09;0.95;;;0.38;;
61640;SDS011;62201;49.966;8.342;2023-08-06T12:29:36;2.03;;;0.50;;
61640;SDS011;62201;49.966;8.342;2023-08-06T12:32:03;0.63;;;0.43;;
61640;SDS011;62201;49.966;8.342;2023-08-06T12:34:28;0.65;;;0.40;;
61640;SDS011;62201;49.966;8.342;2023-08-06T12:36:54;0.93;;;0.40;;
61640;SDS011;62201;49.966;8.342;2023-08-06T12:39:19;0.60;;;0.50;;
61640;SDS011;62201;49.966;8.342;2023-08-06T12:41:44;1.38;;;0.60;;
61640;SDS011;62201;49.966;8.342;2023-08-06T12:44:11;0.77;;;0.50;;
61640;SDS011;62201;49.966;8.342;2023-08-06T12:46:37;1.88;;;0.50;;
61640;SDS011;62201;49.966;8.342;2023-08-06T12:49:02;1.88;;;0.57;;
61640;SDS011;62201;49.966;8.342;2023-08-06T12:51:27;0.95;;;0.47;;
61640;SDS011;62201;49.966;8.342;2023-08-06T12:53:53;1.20;;;0.50;;
61640;SDS011;62201;49.966;8.342;2023-08-06T12:56:18;0.55;;;0.40;;
61640;SDS011;62201;49.966;8.342;2023-08-06T12:58:43;2.72;;;0.70;;
61640;SDS011;62201;49.966;8.342;2023-08-06T13:01:09;1.92;;;0.63;;
61640;SDS011;62201;49.966;8.342;2023-08-06T13:03:34;0.80;;;0.60;;
61640;SDS011;62201;49.966;8.342;2023-08-06T13:06:00;2.83;;;0.80;;
61640;SDS011;62201;49.966;8.342;2023-08-06T13:08:25;2.05;;;0.60;;
61640;SDS011;62201;49.966;8.342;2023-08-06T13:10:51;2.90;;;0.60;;
61640;SDS011;62201;49.966;8.342;2023-08-06T13:13:16;1.70;;;0.60;;
61640;SDS011;62201;49.966;8.342;2023-08-06T13:15:41;3.50;;;0.70;;
61640;SDS011;62201;49.966;8.342;2023-08-06T13:18:07;8.30;;;0.57;;
61640;SDS011;62201;49.966;8.342;2023-08-06T13:20:32;2.40;;;0.60;;
61640;SDS011;62201;49.966;8.342;2023-08-06T13:22:58;2.58;;;0.63;;
61640;SDS011;62201;49.966;8.342;2023-08-06T13:25:26;1.20;;;0.40;;
61640;SDS011;62201;49.966;8.342;2023-08-06T13:27:53;3.28;;;0.98;;
61640;SDS011;62201;49.966;8.342;2023-08-06T13:30:19;2.25;;;0.60;;
61640;SDS011;62201;49.966;8.342;2023-08-06T13:32:45;1.55;;;0.52;;
61640;SDS011;62201;49.966;8.342;2023-08-06T13:35:10;1.50;;;0.40;;
61640;SDS011;62201;49.966;8.342;2023-08-06T13:37:36;2.58;;;0.40;;
61640;SDS011;62201;49.966;8.342;2023-08-06T13:40:01;0.77;;;0.30;;
61640;SDS011;62201;49.966;8.342;2023-08-06T13:42:27;2.05;;;0.40;;
61640;SDS011;62201;49.966;8.342;2023-08-06T13:44:53;0.63;;;0.20;;
61640;SDS011;62201;49.966;8.342;2023-08-06T13:47:24;1.30;;;0.50;;
61640;SDS011;62201;49.966;8.342;2023-08-06T13:49:49;1.27;;;0.30;;
61640;SDS011;62201;49.966;8.342;2023-08-06T13:52:15;1.00;;;0.38;;
61640;SDS011;62201;49.966;8.342;2023-08-06T13:54:40;2.55;;;0.40;;
61640;SDS011;62201;49.966;8.342;2023-08-06T13:57:06;0.82;;;0.25;;
61640;SDS011;62201;49.966;8.342;2023-08-06T13:59:31;0.40;;;0.22;;
61640;SDS011;62201;49.966;8.342;2023-08-06T14:01:57;2.15;;;0.40;;
61640;SDS011;62201;49.966;8.342;2023-08-06T14:04:24;0.63;;;0.30;;
61640;SDS011;62201;49.966;8.342;2023-08-06T14:06:50;3.72;;;0.50;;
61640;SDS011;62201;49.966;8.342;2023-08-06T14:09:15;0.57;;;0.30;;
61640;SDS011;62201;49.966;8.342;2023-08-06T14:11:43;1.08;;;0.40;;
61640;SDS011;62201;49.966;8.342;2023-08-06T14:14:10;0.93;;;0.30;;
61640;SDS011;62201;49.966;8.342;2023-08-06T14:16:36;1.88;;;0.28;;
61640;SDS011;62201;49.966;8.342;2023-08-06T14:19:01;0.95;;;0.38;;
61640;SDS011;62201;49.966;8.342;2023-08-06T14:21:27;4.13;;;0.38;;
61640;SDS011;62201;49.966;8.342;2023-08-06T14:23:52;1.67;;;0.40;;
61640;SDS011;62201;49.966;8.342;2023-08-06T14:26:18;1.02;;;0.35;;
61640;SDS011;62201;49.966;8.342;2023-08-06T14:28:43;0.90;;;0.38;;
61640;SDS011;62201;49.966;8.342;2023-08-06T14:31:09;2.20;;;0.30;;
61640;SDS011;62201;49.966;8.342;2023-08-06T14:33:34;1.08;;;0.50;;
61640;SDS011;62201;49.966;8.342;2023-08-06T14:35:59;1.38;;;0.47;;
61640;SDS011;62201;49.966;8.342;2023-08-06T14:38:25;0.85;;;0.40;;
61640;SDS011;62201;49.966;8.342;2023-08-06T14:40:50;0.98;;;0.20;;
61640;SDS011;62201;49.966;8.342;2023-08-06T14:43:16;0.30;;;0.30;;
61640;SDS011;62201;49.966;8.342;2023-08-06T14:45:41;0.85;;;0.30;;